Time;durP1;ratioP1;P1;durP2;ratioP2;P2;SDS_P1;SDS_P2;PMS_P1;PMS_P2;Temp;Humidity;BMP_temperature;BMP_pressure;BME280_temperature;BME280_humidity;BME280_pressure;Samples;Min_cycle;Max_cycle;Signal;HPM_P1;HPM_P2
2023/08/12 00:01:09;;;;;;;4.30;0.40;;;19.30;99.90;;;;;;5033098;28;20435;-75
2023/08/12 00:03:35;;;;;;;4.18;1.27;;;19.30;99.90;;;;;;5033468;28;20081;-76
2023/08/12 00:06:01;;;;;;;5.10;1.25;;;19.30;99.90;;;;;;5031865;28;20032;-76
2023/08/12 00:08:27;;;;;;;6.63;1.15;;;19.30;99.90;;;;;;5033457;28;20100;-76
2023/08/12 00:10:52;;;;;;;2.00;0.88;;;19.20;99.90;;;;;;5033346;28;20064;-75
2023/08/12 00:13:18;;;;;;;4.22;1.38;;;19.20;99.90;;;;;;5033208;28;20014;-76
2023/08/12 00:15:44;;;;;;;4.57;1.75;;;19.20;99.90;;;;;;5032997;28;20098;-76
2023/08/12 00:18:10;;;;;;;7.13;2.08;;;19.20;99.90;;;;;;5032943;28;20022;-76
2023/08/12 00:20:37;;;;;;;16.20;2.55;;;19.30;99.90;;;;;;5032979;28;20098;-76
2023/08/12 00:23:04;;;;;;;4.03;1.65;;;19.20;99.90;;;;;;5034064;28;20108;-76
2023/08/12 00:25:29;;;;;;;4.30;2.13;;;19.20;99.90;;;;;;5035756;28;20026;-76
2023/08/12 00:27:55;;;;;;;4.45;2.38;;;19.20;99.90;;;;;;5035695;28;20049;-76
2023/08/12 00:30:20;;;;;;;6.13;2.13;;;19.60;99.90;;;;;;5035648;28;20366;-76
2023/08/12 00:32:46;;;;;;;10.43;2.78;;;19.20;99.90;;;;;;5036814;28;20392;-76
2023/08/12 00:35:11;;;;;;;5.50;2.08;;;20.90;99.90;;;;;;5036711;28;20095;-76
2023/08/12 00:37:37;;;;;;;5.85;2.33;;;19.40;99.90;;;;;;5035566;28;20026;-76
2023/08/12 00:40:03;;;;;;;6.20;2.28;;;19.30;99.90;;;;;;5036958;28;20440;-76
2023/08/12 00:42:29;;;;;;;5.88;3.05;;;19.30;99.90;;;;;;5035381;28;20531;-76
2023/08/12 00:44:54;;;;;;;6.70;2.67;;;19.30;99.90;;;;;;5036636;28;20021;-76
2023/08/12 00:47:21;;;;;;;5.78;2.30;;;19.30;99.90;;;;;;5036578;28;20040;-75
2023/08/12 00:49:47;;;;;;;4.25;2.25;;;19.30;99.90;;;;;;5035238;28;20136;-76
2023/08/12 00:52:14;;;;;;;6.25;2.45;;;19.30;99.90;;;;;;5035263;28;20037;-76
2023/08/12 00:54:39;;;;;;;5.05;2.17;;;19.30;99.90;;;;;;5036328;28;20029;-76
2023/08/12 00:57:06;;;;;;;7.30;2.40;;;19.30;99.90;;;;;;5036596;28;20030;-76
2023/08/12 00:59:34;;;;;;;7.38;2.90;;;19.20;99.90;;;;;;5036437;28;20033;-76
2023/08/12 01:02:00;;;;;;;;;;;19.20;99.90;;;;;;5035668;28;20378;-75
2023/08/12 01:04:26;;;;;;;7.30;3.00;;;19.20;99.90;;;;;;5035039;28;19916;-75
2023/08/12 01:06:52;;;;;;;5.25;2.78;;;19.20;99.90;;;;;;5036128;28;20026;-76
2023/08/12 01:09:18;;;;;;;8.20;2.80;;;19.20;99.90;;;;;;5036185;28;20043;-75
2023/08/12 01:11:55;;;;;;;7.97;2.55;;;19.20;99.90;;;;;;5036842;28;20029;-76
2023/08/12 01:14:30;;;;;;;7.78;2.95;;;19.20;99.90;;;;;;5036221;28;20370;-76
2023/08/12 01:17:06;;;;;;;6.80;2.65;;;19.20;99.90;;;;;;5036211;28;20437;-76
2023/08/12 01:19:35;;;;;;;8.00;2.70;;;19.10;99.90;;;;;;5036416;28;20117;-76
2023/08/12 01:22:02;;;;;;;7.85;2.72;;;19.10;99.90;;;;;;5034813;28;20021;-76
2023/08/12 01:24:36;;;;;;;11.40;2.85;;;19.00;99.90;;;;;;5035778;28;20524;-76
2023/08/12 01:27:02;;;;;;;9.38;3.92;;;19.00;99.90;;;;;;5035840;28;20022;-76
2023/08/12 01:29:28;;;;;;;7.38;2.60;;;19.00;99.90;;;;;;5034683;28;20446;-76
2023/08/12 01:32:03;;;;;;;8.55;3.05;;;19.10;99.90;;;;;;5035736;28;20027;-76
2023/08/12 01:34:32;;;;;;;7.50;2.85;;;19.10;99.90;;;;;;5035246;28;20025;-76
2023/08/12 01:36:59;;;;;;;8.52;2.72;;;19.00;99.90;;;;;;5035678;28;20385;-76
2023/08/12 01:39:26;;;;;;;9.65;2.63;;;18.70;99.90;;;;;;5035619;28;20022;-76
2023/08/12 01:41:54;;;;;;;8.88;3.53;;;19.00;99.90;;;;;;5034574;28;20014;-76
2023/08/12 01:44:19;;;;;;;5.40;2.53;;;19.00;99.90;;;;;;5035655;28;20032;-76
2023/08/12 01:46:45;;;;;;;7.13;3.13;;;19.00;99.90;;;;;;5036163;28;20617;-75
2023/08/12 01:49:10;;;;;;;11.30;3.03;;;19.00;99.90;;;;;;5035652;28;20030;-76
2023/08/12 01:51:36;;;;;;;7.40;3.13;;;19.00;99.90;;;;;;5035940;28;20037;-76
2023/08/12 01:54:02;;;;;;;7.28;2.92;;;19.00;99.90;;;;;;5035776;28;20377;-76
2023/08/12 01:56:28;;;;;;;8.27;3.00;;;19.00;99.90;;;;;;5035551;28;20100;-76
2023/08/12 01:58:53;;;;;;;8.20;2.50;;;19.00;99.90;;;;;;5033961;28;20033;-75
2023/08/12 02:01:19;;;;;;;8.15;3.65;;;19.00;99.90;;;;;;5035300;28;20034;-76
2023/08/12 02:03:44;;;;;;;8.32;3.47;;;19.00;99.90;;;;;;5035253;28;20537;-76
2023/08/12 02:06:10;;;;;;;10.70;3.50;;;19.00;99.90;;;;;;5035276;28;20053;-76
2023/08/12 02:08:35;;;;;;;10.88;3.15;;;19.00;99.90;;;;;;5033858;28;20029;-76
2023/08/12 02:11:07;;;;;;;8.95;3.72;;;19.00;99.90;;;;;;5035034;28;20084;-76
2023/08/12 02:13:32;;;;;;;7.60;3.67;;;19.00;99.90;;;;;;5034891;28;20045;-76
2023/08/12 02:15:58;;;;;;;11.75;3.58;;;18.90;99.90;;;;;;5035084;28;20041;-76
2023/08/12 02:18:23;;;;;;;10.90;3.83;;;19.00;99.90;;;;;;5034855;28;20029;-76
2023/08/12 02:20:49;;;;;;;9.50;3.60;;;19.00;99.90;;;;;;5034858;28;20027;-76
2023/08/12 02:23:14;;;;;;;7.00;2.83;;;19.10;99.90;;;;;;5034962;28;20097;-76
2023/08/12 02:25:40;;;;;;;10.18;3.25;;;19.00;99.90;;;;;;5034817;28;20522;-76
2023/08/12 02:28:06;;;;;;;11.90;4.07;;;19.10;99.90;;;;;;5034776;28;20041;-76
2023/08/12 02:30:31;;;;;;;12.43;3.85;;;19.10;99.90;;;;;;5034746;28;20022;-76
2023/08/12 02:32:57;;;;;;;12.90;3.83;;;19.10;99.90;;;;;;5034779;28;20025;-76
2023/08/12 02:35:22;;;;;;;8.68;3.72;;;19.20;99.90;;;;;;5033250;28;20068;-76
2023/08/12 02:37:49;;;;;;;8.93;4.85;;;19.20;99.90;;;;;;5033118;28;20037;-76
2023/08/12 02:40:14;;;;;;;12.13;5.03;;;19.20;99.90;;;;;;5034742;28;20111;-76
2023/08/12 02:42:40;;;;;;;10.35;4.70;;;19.20;99.90;;;;;;5035028;28;20033;-76
2023/08/12 02:45:06;;;;;;;10.40;4.00;;;19.20;99.90;;;;;;5033719;28;20075;-75
2023/08/12 02:47:31;;;;;;;13.77;4.90;;;19.10;99.90;;;;;;5034256;28;20030;-76
2023/08/12 02:49:57;;;;;;;11.20;5.00;;;19.10;99.90;;;;;;5034985;28;20049;-76
2023/08/12 02:52:22;;;;;;;12.82;4.95;;;19.20;99.90;;;;;;5032901;28;20029;-76
2023/08/12 02:54:48;;;;;;;8.13;4.68;;;19.20;99.90;;;;;;5034247;28;20018;-75
2023/08/12 02:57:13;;;;;;;16.42;5.68;;;19.20;99.90;;;;;;5032809;28;20053;-76
2023/08/12 02:59:39;;;;;;;11.23;4.85;;;19.20;99.90;;;;;;5033020;28;20041;-76
2023/08/12 03:02:05;;;;;;;10.88;4.97;;;19.20;99.90;;;;;;5034263;28;20026;-76
2023/08/12 03:04:30;;;;;;;14.43;4.40;;;19.30;99.90;;;;;;5032979;28;20118;-75
2023/08/12 03:06:56;;;;;;;7.82;4.82;;;19.60;99.90;;;;;;5034042;28;20025;-76
2023/08/12 03:09:21;;;;;;;12.05;5.68;;;19.30;99.90;;;;;;5034169;28;20021;-76
2023/08/12 03:11:47;;;;;;;11.10;4.50;;;19.30;99.90;;;;;;5032881;28;20518;-76
2023/08/12 03:14:12;;;;;;;12.57;5.18;;;19.30;99.90;;;;;;5034082;28;20028;-76
2023/08/12 03:16:38;;;;;;;14.20;5.70;;;19.30;99.90;;;;;;5033826;28;20052;-76
2023/08/12 03:19:04;;;;;;;11.02;5.20;;;19.30;99.90;;;;;;5034366;28;20381;-76
2023/08/12 03:21:29;;;;;;;12.80;5.63;;;19.30;99.90;;;;;;5033757;28;20025;-76
2023/08/12 03:23:55;;;;;;;14.27;6.22;;;19.40;99.90;;;;;;5034204;28;20112;-76
2023/08/12 03:26:20;;;;;;;11.52;6.10;;;19.40;99.90;;;;;;5033757;28;20025;-75
2023/08/12 03:28:46;;;;;;;11.02;5.15;;;19.40;99.90;;;;;;5033725;28;20072;-76
2023/08/12 03:31:11;;;;;;;14.18;5.55;;;19.40;99.90;;;;;;5033477;28;20030;-76
2023/08/12 03:33:37;;;;;;;9.85;5.57;;;19.40;99.90;;;;;;5033543;28;20021;-76
2023/08/12 03:36:03;;;;;;;10.55;5.57;;;19.40;99.90;;;;;;5033426;28;20021;-76
2023/08/12 03:38:29;;;;;;;13.30;5.47;;;19.40;99.90;;;;;;5033683;28;20061;-76
2023/08/12 03:40:54;;;;;;;13.95;5.68;;;19.50;99.90;;;;;;5033501;28;20072;-76
2023/08/12 03:43:20;;;;;;;11.88;6.03;;;19.40;99.90;;;;;;5033582;28;20049;-76
2023/08/12 03:45:46;;;;;;;12.23;6.97;;;19.40;99.90;;;;;;5033338;28;20045;-76
2023/08/12 03:48:12;;;;;;;14.82;6.20;;;19.40;99.90;;;;;;5033501;28;20033;-76
2023/08/12 03:50:38;;;;;;;13.32;5.80;;;19.40;99.90;;;;;;5033294;28;20392;-76
2023/08/12 03:53:05;;;;;;;12.27;7.18;;;19.50;99.90;;;;;;5033944;28;20029;-76
2023/08/12 03:55:32;;;;;;;16.95;7.30;;;19.50;99.90;;;;;;5033245;28;20439;-76
2023/08/12 03:57:58;;;;;;;17.20;6.70;;;19.40;99.90;;;;;;5033089;28;20025;-76
2023/08/12 04:00:23;;;;;;;17.10;7.07;;;19.40;99.90;;;;;;5033199;28;20049;-76
2023/08/12 04:02:49;;;;;;;15.57;6.88;;;19.60;99.90;;;;;;5033158;28;20527;-76
2023/08/12 04:05:14;;;;;;;10.40;6.05;;;19.50;99.90;;;;;;5033253;28;20072;-76
2023/08/12 04:07:40;;;;;;;14.38;7.20;;;19.40;99.90;;;;;;5033722;28;20030;-76
2023/08/12 04:10:06;;;;;;;20.40;6.65;;;19.40;99.90;;;;;;5031970;28;20120;-76
2023/08/12 04:12:32;;;;;;;18.88;7.10;;;19.50;99.90;;;;;;5032902;28;20457;-76
2023/08/12 04:14:57;;;;;;;14.90;6.28;;;19.50;99.90;;;;;;5033515;28;20036;-76
2023/08/12 04:17:23;;;;;;;14.95;6.82;;;19.50;99.90;;;;;;5033011;28;20029;-76
2023/08/12 04:19:49;;;;;;;15.30;6.68;;;19.40;99.90;;;;;;5032987;28;20485;-76
2023/08/12 04:22:16;;;;;;;15.38;6.55;;;19.50;99.90;;;;;;5032971;28;20025;-76
2023/08/12 04:24:42;;;;;;;12.05;6.15;;;19.50;99.90;;;;;;5032972;28;20022;-76
2023/08/12 04:27:07;;;;;;;17.33;5.47;;;19.50;99.90;;;;;;5033442;28;20080;-76
2023/08/12 04:29:33;;;;;;;12.73;6.10;;;19.50;99.90;;;;;;5033074;28;20021;-76
2023/08/12 04:31:58;;;;;;;11.82;6.70;;;19.50;99.90;;;;;;5032925;28;20026;-75
2023/08/12 04:34:24;;;;;;;10.40;4.97;;;19.60;99.90;;;;;;5032729;28;20028;-76
2023/08/12 04:36:49;;;;;;;14.18;5.18;;;19.50;99.90;;;;;;5031607;28;20029;-75
2023/08/12 04:39:15;;;;;;;10.98;5.97;;;19.60;99.90;;;;;;5032839;28;20071;-76
2023/08/12 04:41:41;;;;;;;12.80;6.65;;;19.60;99.90;;;;;;5032820;28;20080;-76
2023/08/12 04:44:06;;;;;;;12.30;5.25;;;19.60;99.90;;;;;;5032739;28;20028;-76
2023/08/12 04:46:32;;;;;;;11.65;5.05;;;19.70;99.90;;;;;;5032855;28;20032;-75
2023/08/12 04:48:57;;;;;;;9.05;5.38;;;19.60;99.90;;;;;;5031886;28;20030;-76
2023/08/12 04:51:23;;;;;;;12.93;5.65;;;19.70;99.90;;;;;;5033286;28;20029;-76
2023/08/12 04:53:48;;;;;;;13.10;5.65;;;19.60;99.90;;;;;;5032084;28;20112;-75
2023/08/12 04:56:14;;;;;;;6.93;4.63;;;19.70;99.90;;;;;;5033262;28;20034;-76
2023/08/12 04:58:40;;;;;;;7.95;4.28;;;19.70;99.90;;;;;;5032525;28;20030;-76
2023/08/12 05:01:05;;;;;;;11.30;5.07;;;19.60;99.90;;;;;;5033251;28;20061;-77
2023/08/12 05:03:31;;;;;;;13.43;4.90;;;19.70;99.90;;;;;;5032694;28;20504;-76
2023/08/12 05:05:56;;;;;;;14.63;6.28;;;19.70;99.90;;;;;;5032519;28;20103;-76
2023/08/12 05:08:22;;;;;;;8.93;4.68;;;19.70;99.90;;;;;;5033474;28;20080;-76
2023/08/12 05:10:48;;;;;;;10.10;5.15;;;19.70;99.90;;;;;;5036109;28;20029;-76
2023/08/12 05:13:14;;;;;;;16.27;5.03;;;19.70;99.90;;;;;;5036350;28;20022;-76
2023/08/12 05:15:40;;;;;;;14.40;5.80;;;19.70;99.90;;;;;;5036024;28;20052;-76
2023/08/12 05:18:06;;;;;;;10.77;4.80;;;19.70;99.90;;;;;;5034690;28;20029;-76
2023/08/12 05:20:31;;;;;;;9.20;5.28;;;19.80;99.90;;;;;;5036131;28;20021;-75
2023/08/12 05:22:57;;;;;;;11.45;5.05;;;19.80;99.90;;;;;;5035978;28;20030;-76
2023/08/12 05:25:23;;;;;;;9.18;5.03;;;;;;;;;;5035778;28;20030;-76
2023/08/12 05:27:49;;;;;;;10.77;5.90;;;19.80;99.90;;;;;;5034610;28;20036;-76
2023/08/12 05:30:15;;;;;;;10.48;5.53;;;19.80;99.90;;;;;;5035732;28;20033;-77
2023/08/12 05:32:40;;;;;;;15.68;5.68;;;19.80;99.90;;;;;;5036068;28;20034;-77
2023/08/12 05:35:06;;;;;;;11.43;5.38;;;19.80;99.90;;;;;;5035631;28;20029;-76
2023/08/12 05:37:32;;;;;;;12.07;5.93;;;19.90;99.90;;;;;;5036036;28;20101;-76
2023/08/12 05:39:57;;;;;;;10.07;4.95;;;19.80;99.90;;;;;;5035860;28;20017;-76
2023/08/12 05:42:23;;;;;;;12.18;5.55;;;19.80;99.90;;;;;;5034316;28;20017;-76
2023/08/12 05:44:48;;;;;;;16.30;5.68;;;19.80;99.90;;;;;;5034201;28;20014;-76
2023/08/12 05:47:14;;;;;;;8.48;4.72;;;19.80;99.90;;;;;;5034359;28;20507;-76
2023/08/12 05:49:40;;;;;;;12.95;5.63;;;19.80;99.90;;;;;;5034292;28;20025;-75
2023/08/12 05:52:05;;;;;;;13.50;5.47;;;19.80;99.90;;;;;;5035502;28;20670;-76
2023/08/12 05:54:31;;;;;;;15.80;5.85;;;19.80;99.90;;;;;;5035261;28;20068;-76
2023/08/12 05:56:59;;;;;;;12.15;5.10;;;19.80;99.90;;;;;;5035796;28;20025;-75
2023/08/12 05:59:27;;;;;;;9.73;4.50;;;19.80;99.90;;;;;;5035106;28;20065;-76
2023/08/12 06:01:53;;;;;;;10.98;5.00;;;19.80;99.90;;;;;;5033898;28;20017;-76
2023/08/12 06:04:19;;;;;;;9.38;5.40;;;19.80;99.90;;;;;;5035170;28;20049;-76
2023/08/12 06:06:44;;;;;;;14.73;5.40;;;19.80;99.90;;;;;;5035172;28;20464;-76
2023/08/12 06:09:10;;;;;;;11.77;5.80;;;19.80;99.90;;;;;;5034998;28;20049;-76
2023/08/12 06:11:35;;;;;;;11.50;6.22;;;19.80;99.90;;;;;;5034946;28;20029;-76
2023/08/12 06:14:01;;;;;;;11.75;5.18;;;19.80;99.90;;;;;;5035371;28;20025;-76
2023/08/12 06:16:26;;;;;;;11.73;5.03;;;19.70;99.90;;;;;;5034957;28;20048;-76
2023/08/12 06:18:52;;;;;;;13.13;4.93;;;19.70;99.90;;;;;;5034684;28;20029;-76
2023/08/12 06:21:18;;;;;;;7.70;4.53;;;19.60;99.90;;;;;;5033753;28;20024;-76
2023/08/12 06:23:43;;;;;;;8.00;4.80;;;19.70;99.90;;;;;;5034549;28;20018;-76
2023/08/12 06:26:09;;;;;;;5.22;1.80;;;19.60;99.90;;;;;;5034987;28;20392;-76
2023/08/12 06:28:34;;;;;;;4.72;1.50;;;19.60;99.90;;;;;;5033382;28;20524;-76
2023/08/12 06:31:00;;;;;;;1.60;0.60;;;19.50;99.90;;;;;;5034673;28;20076;-76
2023/08/12 06:33:25;;;;;;;2.63;0.70;;;19.40;99.90;;;;;;5034818;28;20061;-76
2023/08/12 06:35:51;;;;;;;4.20;0.40;;;19.30;99.90;;;;;;5035279;28;20021;-76
2023/08/12 06:38:17;;;;;;;2.25;0.63;;;19.30;99.90;;;;;;5033174;28;20087;-76
2023/08/12 06:40:42;;;;;;;3.60;0.93;;;19.20;99.90;;;;;;5033226;28;20432;-76
2023/08/12 06:43:08;;;;;;;3.20;0.52;;;19.60;99.90;;;;;;5033263;28;20018;-76
2023/08/12 06:45:34;;;;;;;6.60;0.95;;;19.20;99.90;;;;;;5034283;28;20067;-76
2023/08/12 06:48:02;;;;;;;3.75;1.05;;;19.20;99.90;;;;;;5034337;28;20057;-76
2023/08/12 06:50:27;;;;;;;2.95;0.88;;;19.20;99.90;;;;;;5032960;28;20030;-76
2023/08/12 06:52:53;;;;;;;1.38;0.55;;;19.30;99.90;;;;;;5032865;28;20393;-76
2023/08/12 06:55:18;;;;;;;2.00;0.52;;;19.30;99.90;;;;;;5034127;28;20377;-76
2023/08/12 06:57:44;;;;;;;1.17;0.40;;;19.40;99.90;;;;;;5032708;28;20017;-76
2023/08/12 07:00:10;;;;;;;0.93;0.10;;;19.40;99.90;;;;;;5033877;28;20030;-76
2023/08/12 07:02:36;;;;;;;3.40;0.20;;;19.40;99.90;;;;;;5034321;28;20481;-76
2023/08/12 07:05:02;;;;;;;2.03;0.20;;;19.40;99.90;;;;;;5033862;28;20096;-76
2023/08/12 07:07:27;;;;;;;0.50;0.20;;;19.40;99.90;;;;;;5034137;28;20021;-77
2023/08/12 07:09:53;;;;;;;1.35;0.20;;;19.50;99.90;;;;;;5033993;28;20045;-75
2023/08/12 07:12:18;;;;;;;1.17;0.20;;;19.50;99.90;;;;;;5033929;28;20025;-76
2023/08/12 07:14:44;;;;;;;1.65;0.22;;;19.50;99.90;;;;;;5033769;28;20021;-76
2023/08/12 07:17:09;;;;;;;1.23;0.30;;;19.50;99.90;;;;;;5033637;28;20029;-76
2023/08/12 07:19:35;;;;;;;3.72;1.08;;;19.60;99.90;;;;;;5034249;28;20428;-77
2023/08/12 07:22:00;;;;;;;1.38;1.00;;;19.50;99.90;;;;;;5032375;28;20389;-75
2023/08/12 07:24:26;;;;;;;2.63;0.95;;;19.80;99.90;;;;;;5033907;28;20080;-75
2023/08/12 07:26:52;;;;;;;1.10;0.73;;;19.70;99.90;;;;;;5034245;28;20453;-76
2023/08/12 07:29:17;;;;;;;1.20;0.80;;;19.70;99.90;;;;;;5033632;28;20025;-75
2023/08/12 07:31:43;;;;;;;1.77;0.90;;;19.70;99.90;;;;;;5033170;28;20021;-76
2023/08/12 07:34:12;;;;;;;1.85;0.60;;;19.70;99.90;;;;;;5033503;28;20148;-76
2023/08/12 07:36:39;;;;;;;1.27;0.73;;;19.70;99.90;;;;;;5033421;28;20014;-76
2023/08/12 07:39:04;;;;;;;3.17;0.52;;;19.70;99.90;;;;;;5032298;28;20026;-75
2023/08/12 07:41:30;;;;;;;1.92;0.63;;;19.80;99.90;;;;;;5033284;28;20029;-75
2023/08/12 07:43:55;;;;;;;0.65;0.20;;;19.80;99.90;;;;;;5033287;28;20029;-76
2023/08/12 07:46:21;;;;;;;2.50;0.47;;;19.80;99.90;;;;;;5033954;28;20025;-76
2023/08/12 07:48:46;;;;;;;1.38;0.68;;;19.80;99.90;;;;;;5033641;28;20053;-76
2023/08/12 07:51:12;;;;;;;1.85;0.25;;;19.80;99.90;;;;;;5033380;28;20028;-77
2023/08/12 07:53:38;;;;;;;1.30;0.40;;;19.80;99.90;;;;;;5033428;28;20022;-75
2023/08/12 07:56:03;;;;;;;0.57;0.30;;;19.80;99.90;;;;;;5033235;28;20627;-76
2023/08/12 07:58:29;;;;;;;0.85;0.17;;;19.80;99.90;;;;;;5033179;28;20026;-76
2023/08/12 08:00:55;;;;;;;1.17;0.40;;;20.40;99.90;;;;;;5033319;28;20026;-76
2023/08/12 08:03:20;;;;;;;0.63;0.30;;;19.80;99.90;;;;;;5032052;28;20075;-76
2023/08/12 08:05:46;;;;;;;1.38;0.20;;;19.80;99.90;;;;;;5033125;28;20099;-76
2023/08/12 08:08:13;;;;;;;1.05;0.20;;;19.80;99.90;;;;;;5033550;28;20032;-76
2023/08/12 08:10:38;;;;;;;0.47;0.03;;;19.80;99.90;;;;;;5032116;28;20034;-76
2023/08/12 08:13:04;;;;;;;0.52;0.10;;;19.90;99.90;;;;;;5033130;28;20401;-76
2023/08/12 08:15:29;;;;;;;0.20;0.00;;;20.00;99.90;;;;;;5033077;28;20022;-75
2023/08/12 08:17:55;;;;;;;0.52;0.10;;;20.00;99.90;;;;;;5032973;28;20101;-75
2023/08/12 08:20:21;;;;;;;1.23;0.00;;;20.10;99.90;;;;;;5031945;28;20097;-75
2023/08/12 08:22:47;;;;;;;0.77;0.00;;;20.10;99.90;;;;;;5031770;28;20033;-75
2023/08/12 08:25:12;;;;;;;0.00;0.00;;;20.20;99.90;;;;;;5031672;28;20021;-76
2023/08/12 08:27:38;;;;;;;0.17;0.00;;;20.10;99.90;;;;;;5031650;28;20087;-76
2023/08/12 08:30:05;;;;;;;0.20;0.00;;;20.00;99.90;;;;;;5033033;28;20112;-75
2023/08/12 08:32:31;;;;;;;0.08;0.00;;;20.10;99.90;;;;;;5032644;28;20111;-76
2023/08/12 08:34:56;;;;;;;1.48;0.00;;;20.10;99.90;;;;;;5032822;28;20056;-76
2023/08/12 08:37:22;;;;;;;2.05;0.00;;;20.10;99.90;;;;;;5032384;28;20421;-76
2023/08/12 08:39:48;;;;;;;0.63;0.00;;;20.10;99.90;;;;;;5033418;28;20021;-76
2023/08/12 08:42:15;;;;;;;1.23;0.22;;;20.00;99.90;;;;;;5032879;28;20029;-76
2023/08/12 08:44:51;;;;;;;0.38;0.00;;;19.70;99.90;;;;;;5035812;28;20029;-76
2023/08/12 08:47:25;;;;;;;1.95;0.10;;;19.70;99.90;;;;;;5036640;28;20022;-76
2023/08/12 08:49:51;;;;;;;1.67;0.05;;;19.40;99.90;;;;;;5035521;28;20036;-75
2023/08/12 08:52:18;;;;;;;0.20;0.00;;;19.30;99.90;;;;;;5036570;28;20034;-75
2023/08/12 08:54:44;;;;;;;1.73;0.00;;;19.20;99.90;;;;;;5036447;28;20533;-76
2023/08/12 08:57:10;;;;;;;1.77;0.10;;;19.10;99.90;;;;;;5036425;28;20105;-75
2023/08/12 08:59:36;;;;;;;2.72;0.08;;;18.90;99.90;;;;;;5034912;28;20028;-75
2023/08/12 09:02:02;;;;;;;0.82;0.10;;;18.90;99.90;;;;;;5036949;28;20029;-76
2023/08/12 09:04:28;;;;;;;1.73;0.00;;;18.80;99.90;;;;;;5036414;28;20512;-76
2023/08/12 09:06:56;;;;;;;0.83;0.10;;;18.80;99.90;;;;;;5035241;28;20080;-75
2023/08/12 09:09:23;;;;;;;2.55;0.25;;;18.90;99.90;;;;;;5034994;28;20022;-76
2023/08/12 09:11:50;;;;;;;2.78;0.10;;;18.80;99.90;;;;;;5036189;28;20052;-76
2023/08/12 09:14:15;;;;;;;5.90;0.00;;;18.90;99.90;;;;;;5036039;28;20032;-75
2023/08/12 09:16:41;;;;;;;1.80;0.00;;;18.90;99.90;;;;;;5036134;28;20029;-75
2023/08/12 09:19:06;;;;;;;1.42;0.38;;;18.90;99.90;;;;;;5035867;28;20025;-75
2023/08/12 09:21:32;;;;;;;2.65;0.25;;;18.90;99.90;;;;;;5034814;28;20032;-75
2023/08/12 09:24:02;;;;;;;1.73;0.30;;;19.10;99.90;;;;;;5035885;28;20021;-75
2023/08/12 09:26:29;;;;;;;2.58;0.00;;;19.10;99.90;;;;;;5035892;28;20021;-75
2023/08/12 09:28:54;;;;;;;3.33;0.10;;;19.30;99.90;;;;;;5035855;28;20132;-75
2023/08/12 09:31:25;;;;;;;1.10;0.00;;;19.50;99.90;;;;;;5035731;28;20049;-76
2023/08/12 09:33:51;;;;;;;3.08;0.00;;;19.80;99.90;;;;;;5035661;28;20025;-76
2023/08/12 09:36:17;;;;;;;3.47;0.00;;;19.80;99.90;;;;;;5035675;28;20524;-76
2023/08/12 09:38:47;;;;;;;0.90;0.05;;;20.00;99.90;;;;;;5035650;28;20097;-76
2023/08/12 09:41:13;;;;;;;5.10;0.20;;;20.30;99.90;;;;;;5035894;28;20032;-76
2023/08/12 09:43:42;;;;;;;5.10;0.10;;;20.20;99.90;;;;;;5035859;28;20026;-76
2023/08/12 09:46:12;;;;;;;3.08;0.00;;;20.40;99.90;;;;;;5035983;28;20022;-78
2023/08/12 09:48:38;;;;;;;3.10;0.00;;;20.50;99.90;;;;;;5036620;28;20057;-77
2023/08/12 09:51:04;;;;;;;3.85;0.20;;;20.40;99.90;;;;;;5036094;28;20111;-78
2023/08/12 09:53:30;;;;;;;5.07;0.55;;;20.40;99.90;;;;;;5038876;28;20026;-77
2023/08/12 09:56:00;;;;;;;1.70;0.30;;;20.40;99.90;;;;;;5037918;28;20370;-78
2023/08/12 09:58:29;;;;;;;3.00;0.00;;;20.40;99.90;;;;;;5037160;28;20116;-77
2023/08/12 10:00:54;;;;;;;;;;;20.50;99.90;;;;;;5034775;28;20048;-76
2023/08/12 10:03:21;;;;;;;1.42;0.20;;;20.70;99.90;;;;;;5035513;28;19996;-75
2023/08/12 10:05:47;;;;;;;0.82;0.08;;;20.90;99.90;;;;;;5034866;28;20094;-76
2023/08/12 10:08:14;;;;;;;3.22;0.40;;;21.10;99.90;;;;;;5038035;28;20029;-80
2023/08/12 10:10:40;;;;;;;6.78;0.35;;;21.20;99.90;;;;;;5039759;28;20401;-76
2023/08/12 10:13:07;;;;;;;1.77;0.10;;;21.40;99.90;;;;;;5037985;28;20102;-78
2023/08/12 10:15:34;;;;;;;5.80;0.57;;;21.60;99.90;;;;;;5037191;28;20104;-78
2023/08/12 10:17:59;;;;;;;3.40;0.30;;;21.60;99.90;;;;;;5039875;28;20401;-77
2023/08/12 10:20:27;;;;;;;0.85;0.30;;;21.50;99.90;;;;;;5036290;28;20031;-77
2023/08/12 10:22:54;;;;;;;7.10;0.30;;;22.30;99.90;;;;;;5037702;28;20377;-77
2023/08/12 10:25:23;;;;;;;0.75;0.00;;;22.60;99.90;;;;;;5039894;28;20067;-77
2023/08/12 10:27:49;;;;;;;;;;;22.90;99.90;;;;;;5040073;28;20029;-77
2023/08/12 10:30:14;;;;;;;1.88;0.43;;;23.10;99.90;;;;;;5036831;28;19905;-77
2023/08/12 10:32:40;;;;;;;4.45;0.10;;;23.10;99.90;;;;;;5034186;28;20366;-78
2023/08/12 10:35:08;;;;;;;4.13;0.40;;;23.00;99.90;;;;;;5034705;28;20064;-79
2023/08/12 10:37:37;;;;;;;4.18;0.10;;;22.70;99.90;;;;;;5036476;28;20022;-77
2023/08/12 10:40:07;;;;;;;1.20;0.30;;;23.00;99.90;;;;;;5034614;28;20120;-76
2023/08/12 10:42:47;;;;;;;1.70;0.10;;;22.90;99.90;;;;;;5033091;28;20053;-76
2023/08/12 10:45:15;;;;;;;2.75;0.47;;;22.90;99.90;;;;;;5033886;28;20025;-76
2023/08/12 10:48:15;;;;;;;2.42;0.57;;;22.90;99.90;;;;;;5032947;28;20033;-76
2023/08/12 10:50:45;;;;;;;2.10;0.00;;;22.90;99.90;;;;;;5031951;28;20067;-76
2023/08/12 10:53:38;;;;;;;1.83;0.17;;;22.90;99.90;;;;;;5034122;28;20074;-76
2023/08/12 10:56:05;;;;;;;3.30;0.10;;;22.90;99.90;;;;;;5031873;28;20087;-77
2023/08/12 10:58:46;;;;;;;3.35;0.10;;;23.20;99.90;;;;;;5032788;28;20028;-75
2023/08/12 11:01:19;;;;;;;1.00;0.05;;;23.40;99.90;;;;;;5034161;28;20021;-76
2023/08/12 11:03:45;;;;;;;3.03;0.75;;;23.70;99.90;;;;;;5034289;28;20079;-77
2023/08/12 11:06:11;;;;;;;3.88;0.35;;;24.00;99.90;;;;;;5033717;28;20029;-76
2023/08/12 11:08:45;;;;;;;3.03;0.00;;;23.80;99.90;;;;;;5034132;28;20476;-75
2023/08/12 11:11:20;;;;;;;2.15;0.00;;;23.90;99.90;;;;;;5034691;28;20033;-76
2023/08/12 11:13:52;;;;;;;2.15;0.20;;;23.80;99.90;;;;;;5033916;28;20025;-76
2023/08/12 11:16:18;;;;;;;1.90;0.17;;;23.90;99.90;;;;;;5033826;28;20026;-76
2023/08/12 11:18:43;;;;;;;2.85;0.00;;;24.10;99.90;;;;;;5033884;28;20038;-76
2023/08/12 11:21:12;;;;;;;1.73;0.00;;;24.10;99.90;;;;;;5033805;28;20045;-76
2023/08/12 11:23:39;;;;;;;2.78;0.00;;;24.00;99.90;;;;;;5033779;28;20041;-76
2023/08/12 11:26:05;;;;;;;1.42;0.00;;;23.90;99.90;;;;;;5033588;28;20034;-76
2023/08/12 11:28:31;;;;;;;2.58;0.10;;;24.10;99.90;;;;;;5033787;28;20025;-76
2023/08/12 11:30:57;;;;;;;2.72;0.38;;;24.40;99.90;;;;;;5032271;28;20396;-76
2023/08/12 11:33:24;;;;;;;3.05;0.20;;;24.70;99.90;;;;;;5033795;28;20026;-76
2023/08/12 11:35:50;;;;;;;1.95;0.00;;;25.00;99.90;;;;;;5033645;28;20029;-75
2023/08/12 11:38:16;;;;;;;0.63;0.30;;;25.30;99.90;;;;;;5032254;28;20029;-75
2023/08/12 11:40:41;;;;;;;3.67;0.00;;;25.20;99.90;;;;;;5033631;28;20424;-75
2023/08/12 11:43:07;;;;;;;5.15;0.80;;;25.10;99.90;;;;;;5033485;28;20029;-76
2023/08/12 11:45:33;;;;;;;3.05;0.75;;;25.20;99.90;;;;;;5033447;28;20025;-76
2023/08/12 11:47:58;;;;;;;5.07;0.00;;;24.90;99.90;;;;;;5033562;28;20433;-74
2023/08/12 11:50:26;;;;;;;1.35;0.00;;;24.80;99.90;;;;;;5033483;28;20061;-75
2023/08/12 11:52:53;;;;;;;2.20;0.10;;;25.00;99.90;;;;;;5033263;28;20021;-74
2023/08/12 11:55:19;;;;;;;1.08;0.05;;;24.90;99.90;;;;;;5033176;28;20469;-75
2023/08/12 11:57:45;;;;;;;1.27;0.35;;;24.90;99.90;;;;;;5033277;28;20080;-75
2023/08/12 12:00:15;;;;;;;4.68;0.10;;;24.80;99.90;;;;;;5033165;28;20409;-74
2023/08/12 12:02:49;;;;;;;2.55;0.00;;;24.90;99.90;;;;;;5031997;28;20018;-75
2023/08/12 12:05:16;;;;;;;0.65;0.00;;;25.10;99.90;;;;;;5031893;28;20045;-75
2023/08/12 12:07:43;;;;;;;1.40;0.00;;;25.60;99.90;;;;;;5031699;28;20014;-76
2023/08/12 12:10:27;;;;;;;3.80;0.10;;;26.00;99.90;;;;;;5031956;28;20032;-76
2023/08/12 12:12:54;;;;;;;1.50;0.10;;;26.20;99.90;;;;;;5032228;28;20079;-76
2023/08/12 12:15:20;;;;;;;3.00;0.30;;;26.50;99.90;;;;;;5033147;28;20025;-75
2023/08/12 12:17:47;;;;;;;3.03;0.38;;;26.60;99.90;;;;;;5035359;28;20044;-75
2023/08/12 12:20:14;;;;;;;3.17;0.15;;;26.30;99.90;;;;;;5036106;28;20014;-75
2023/08/12 12:22:43;;;;;;;1.65;0.20;;;25.70;99.90;;;;;;5035695;28;20021;-74
2023/08/12 12:25:13;;;;;;;7.18;0.47;;;25.80;99.90;;;;;;5036844;28;20048;-74
2023/08/12 12:27:39;;;;;;;3.42;0.57;;;25.90;99.90;;;;;;5036922;28;20507;-75
2023/08/12 12:30:12;;;;;;;6.43;0.25;;;26.20;99.90;;;;;;5036801;28;20393;-76
2023/08/12 12:32:38;;;;;;;4.10;0.22;;;26.00;99.90;;;;;;5037235;28;20079;-76
2023/08/12 12:35:04;;;;;;;0.75;0.00;;;26.30;99.90;;;;;;5037521;28;20018;-76
2023/08/12 12:37:30;;;;;;;4.18;0.30;;;26.00;99.90;;;;;;5038718;28;20022;-77
2023/08/12 12:39:56;;;;;;;2.67;0.45;;;26.30;99.90;;;;;;5038325;28;20041;-76
2023/08/12 12:42:21;;;;;;;7.05;0.30;;;26.40;99.90;;;;;;5036542;28;20473;-76